Time;durP1;ratioP1;P1;durP2;ratioP2;P2;SDS_P1;SDS_P2;PMS_P1;PMS_P2;Temp;Humidity;BMP_temperature;BMP_pressure;BME280_temperature;BME280_humidity;BME280_pressure;Samples;Min_cycle;Max_cycle;Signal;HPM_P1;HPM_P2
2021/05/28 00:01:22;;;;;;;2.20;1.00;;;;;;;10.01;98.27;100895.69;4992670;28;20551;-73
2021/05/28 00:03:47;;;;;;;0.83;0.83;;;;;;;10.02;98.46;100902.75;4993568;28;20689;-73
2021/05/28 00:06:13;;;;;;;0.70;0.70;;;;;;;10.01;98.11;100903.88;4993726;28;20211;-73
2021/05/28 00:08:40;;;;;;;0.67;0.60;;;;;;;9.98;98.07;100903.63;4993397;28;20281;-73
2021/05/28 00:11:06;;;;;;;0.83;0.63;;;;;;;9.95;98.19;100898.78;4993570;28;20177;-73
2021/05/28 00:13:31;;;;;;;0.40;0.40;;;;;;;9.95;97.98;100901.50;4993671;28;20197;-73
2021/05/28 00:15:57;;;;;;;1.80;1.70;;;;;;;9.94;98.34;100908.06;4980722;28;20181;-73
2021/05/28 00:18:22;;;;;;;0.57;0.57;;;;;;;9.93;98.21;100911.91;4982938;28;20188;-73
2021/05/28 00:20:48;;;;;;;2.80;0.73;;;;;;;9.92;98.19;100921.22;4985680;28;20269;-72
2021/05/28 00:23:13;;;;;;;1.33;1.23;;;;;;;9.91;98.29;100927.78;4992968;28;20268;-73
2021/05/28 00:25:39;;;;;;;1.40;1.30;;;;;;;9.89;97.85;100919.88;4993500;28;20173;-72
2021/05/28 00:28:04;;;;;;;2.07;0.70;;;;;;;9.89;97.89;100930.81;4993474;28;20549;-73
2021/05/28 00:30:29;;;;;;;2.73;1.03;;;;;;;9.89;98.12;100928.06;4993347;28;20209;-72
2021/05/28 00:32:55;;;;;;;1.43;0.60;;;;;;;9.88;97.95;100925.63;4993081;28;20243;-73
2021/05/28 00:35:20;;;;;;;1.37;1.20;;;;;;;9.86;98.04;100931.41;4991874;28;20177;-71
2021/05/28 00:37:46;;;;;;;1.47;1.20;;;;;;;9.83;98.51;100930.03;4992894;28;20541;-71
2021/05/28 00:40:13;;;;;;;1.93;0.80;;;;;;;9.82;98.28;100927.59;4993260;28;20169;-71
2021/05/28 00:42:39;;;;;;;0.70;0.70;;;;;;;9.81;98.71;100931.44;4993395;28;20228;-73
2021/05/28 00:45:05;;;;;;;0.53;0.53;;;;;;;9.82;98.91;100936.59;4993013;28;20657;-73
2021/05/28 00:47:30;;;;;;;1.37;1.10;;;;;;;9.85;98.47;100937.97;4992001;28;20170;-71
2021/05/28 00:49:56;;;;;;;2.67;0.83;;;;;;;9.84;98.77;100948.06;4992908;28;20174;-71
2021/05/28 00:52:21;;;;;;;1.37;1.27;;;;;;;9.82;98.58;100944.78;4992979;28;20176;-71
2021/05/28 00:54:47;;;;;;;0.80;0.80;;;;;;;9.83;98.38;100946.41;4992900;28;20191;-71
2021/05/28 00:57:12;;;;;;;1.40;1.30;;;;;;;9.83;98.14;100956.53;4992850;28;20656;-73
2021/05/28 00:59:38;;;;;;;1.27;1.20;;;;;;;9.82;98.28;100960.34;4992839;28;20543;-71
2021/05/28 01:02:03;;;;;;;0.50;0.50;;;;;;;9.82;98.18;100961.16;4992957;28;20542;-71
2021/05/28 01:04:29;;;;;;;0.80;0.80;;;;;;;9.81;98.01;100961.47;4992728;28;20274;-71
2021/05/28 01:06:54;;;;;;;0.67;0.67;;;;;;;9.81;98.17;100965.00;4992741;28;20173;-71
2021/05/28 01:09:20;;;;;;;0.70;0.70;;;;;;;9.80;98.44;100965.28;4992428;28;20256;-71
2021/05/28 01:11:45;;;;;;;2.20;0.93;;;;;;;9.77;98.30;100963.16;4992693;28;20601;-71
2021/05/28 01:14:11;;;;;;;13.90;0.80;;;;;;;9.76;98.81;100967.00;4992644;28;20640;-71
2021/05/28 01:16:36;;;;;;;2.83;1.27;;;;;;;9.74;98.54;100972.75;4993072;28;20265;-71
2021/05/28 01:19:02;;;;;;;0.87;0.87;;;;;;;9.74;98.39;100974.66;4991210;28;20602;-71
2021/05/28 01:21:28;;;;;;;0.67;0.67;;;;;;;9.74;97.85;100974.66;4992774;28;20228;-73
2021/05/28 01:23:54;;;;;;;2.37;1.00;;;;;;;9.73;98.00;100981.22;4992526;28;20197;-71
2021/05/28 01:26:20;;;;;;;1.23;1.13;;;;;;;9.72;98.46;100982.34;4992675;28;20177;-73
2021/05/28 01:28:46;;;;;;;3.40;0.90;;;;;;;9.69;98.35;100983.75;4992356;28;20173;-73
2021/05/28 01:31:12;;;;;;;1.27;1.17;;;;;;;9.66;98.49;100984.31;4992457;28;20586;-71
2021/05/28 01:33:41;;;;;;;1.20;0.93;;;;;;;9.67;98.55;100985.13;4992641;28;20181;-71
2021/05/28 01:36:07;;;;;;;1.07;0.93;;;;;;;9.65;98.63;100982.69;4992318;28;20192;-71
2021/05/28 01:38:32;;;;;;;4.17;0.93;;;;;;;9.66;98.58;100994.41;4992159;28;20177;-71
2021/05/28 01:40:58;;;;;;;3.23;0.83;;;;;;;9.64;98.57;100988.44;4992380;28;20184;-73
2021/05/28 01:43:23;;;;;;;0.93;0.93;;;;;;;9.62;98.76;100993.38;4991985;28;20213;-71
2021/05/28 01:45:48;;;;;;;1.40;1.33;;;;;;;9.63;99.06;100995.00;4992501;28;20209;-71
2021/05/28 01:48:14;;;;;;;1.10;0.80;;;;;;;9.62;99.02;101007.00;4992014;28;20174;-71
2021/05/28 01:50:45;;;;;;;1.40;1.37;;;;;;;9.61;98.71;101000.75;4992051;28;20182;-73
2021/05/28 01:53:19;;;;;;;1.13;0.90;;;;;;;9.60;98.42;100998.31;4992081;28;20165;-71
2021/05/28 01:55:45;;;;;;;0.87;0.87;;;;;;;9.60;99.02;101004.56;4992577;28;20521;-73
2021/05/28 01:58:12;;;;;;;1.80;1.70;;;;;;;9.62;98.65;101009.75;4991779;28;20232;-71
2021/05/28 02:00:39;;;;;;;1.30;1.20;;;;;;;9.61;98.97;101016.28;4992330;28;20177;-71
2021/05/28 02:03:05;;;;;;;3.37;1.73;;;;;;;9.59;98.78;101018.50;4992029;28;20665;-73
2021/05/28 02:05:35;;;;;;;3.20;1.10;;;;;;;9.57;98.81;101007.88;4992193;28;20256;-71
2021/05/28 02:08:02;;;;;;;1.60;1.03;;;;;;;9.54;98.86;101005.72;4992246;28;20169;-73
2021/05/28 02:10:29;;;;;;;0.70;0.70;;;;;;;9.50;99.23;101010.13;4994149;28;20189;-72
2021/05/28 02:12:55;;;;;;;0.93;0.93;;;;;;;9.46;99.01;101011.84;4996554;28;20220;-71
2021/05/28 02:15:20;;;;;;;1.47;1.00;;;;;;;9.47;99.43;101005.28;4992844;28;20209;-73
2021/05/28 02:17:46;;;;;;;2.47;1.67;;;;;;;9.46;99.47;101011.84;4991910;28;20184;-71
2021/05/28 02:20:12;;;;;;;3.97;1.50;;;;;;;9.44;99.66;101003.94;4991901;28;20182;-73
2021/05/28 02:22:38;;;;;;;1.43;1.33;;;;;;;9.42;99.36;101016.25;4990463;28;20239;-71
2021/05/28 02:25:05;;;;;;;2.23;1.67;;;;;;;9.40;99.71;101016.53;4991553;28;20184;-72
2021/05/28 02:27:32;;;;;;;1.87;1.77;;;;;;;9.39;99.54;101017.63;4992028;28;20264;-72
2021/05/28 02:29:57;;;;;;;2.57;2.17;;;;;;;9.40;99.46;101010.25;4991166;28;20192;-73
2021/05/28 02:32:23;;;;;;;4.10;1.97;;;;;;;9.37;99.15;101016.28;4991171;28;20181;-73
2021/05/28 02:34:48;;;;;;;1.47;1.37;;;;;;;9.37;98.71;101019.81;4991357;28;20178;-72
2021/05/28 02:37:13;;;;;;;3.27;1.83;;;;;;;9.39;99.51;101020.34;4991577;28;20181;-73
2021/05/28 02:39:39;;;;;;;7.00;2.10;;;;;;;9.40;99.28;101023.88;4990716;28;20651;-73
2021/05/28 02:42:05;;;;;;;1.50;1.40;;;;;;;9.37;99.35;101021.72;4991169;28;20629;-73
2021/05/28 02:44:30;;;;;;;2.40;2.20;;;;;;;9.36;98.96;101023.66;4991056;28;20613;-73
2021/05/28 02:46:55;;;;;;;4.33;2.73;;;;;;;9.39;99.51;101031.25;4989661;28;20193;-73
2021/05/28 02:49:21;;;;;;;4.57;1.30;;;;;;;9.40;99.33;101035.63;4990665;28;20185;-73
2021/05/28 02:51:46;;;;;;;2.57;2.37;;;;;;;9.39;98.90;101028.53;4984486;28;20177;-73
2021/05/28 02:54:12;;;;;;;3.63;1.43;;;;;;;9.40;99.19;101035.63;4991201;28;20185;-73
2021/05/28 02:56:37;;;;;;;1.83;1.63;;;;;;;9.42;99.35;101043.53;4990577;28;20672;-73
2021/05/28 02:59:02;;;;;;;2.23;2.03;;;;;;;9.41;99.07;101039.97;4990892;28;20228;-72
2021/05/28 03:01:28;;;;;;;5.47;1.97;;;;;;;9.36;98.58;101031.03;4991106;28;20272;-72
2021/05/28 03:03:53;;;;;;;5.23;3.37;;;;;;;9.36;98.38;101042.75;4991018;28;20287;-72
2021/05/28 03:06:19;;;;;;;1.93;1.77;;;;;;;9.36;98.49;101041.94;4991045;28;20177;-73
2021/05/28 03:08:44;;;;;;;1.80;1.70;;;;;;;9.34;98.31;101047.69;4990710;28;20174;-73
2021/05/28 03:11:09;;;;;;;2.33;1.97;;;;;;;9.34;98.58;101058.59;4992020;28;20236;-73
2021/05/28 03:13:35;;;;;;;1.43;1.33;;;;;;;9.31;98.20;101059.16;4994722;28;20174;-73
2021/05/28 03:16:01;;;;;;;1.70;1.60;;;;;;;9.24;98.34;101056.75;4994598;28;20185;-73
2021/05/28 03:18:34;;;;;;;3.07;1.30;;;;;;;9.16;97.57;101049.22;4993226;28;20182;-73
2021/05/28 03:23:44;;;;;;;2.17;1.97;;;;;;;9.09;97.91;101053.34;4994786;28;20304;-73
2021/05/28 03:26:09;;;;;;;2.03;1.70;;;;;;;9.05;98.35;101052.31;4994361;28;20185;-73
2021/05/28 03:28:35;;;;;;;1.33;1.23;;;;;;;9.01;98.31;101062.16;4994160;28;20562;-73
2021/05/28 03:31:00;;;;;;;1.43;1.33;;;;;;;8.99;98.02;101069.81;4994666;28;20184;-72
2021/05/28 03:33:25;;;;;;;1.67;1.57;;;;;;;8.97;98.36;101072.00;4994270;28;20184;-73
2021/05/28 03:35:51;;;;;;;2.93;1.73;;;;;;;8.97;98.03;101074.72;4994197;28;20212;-73
2021/05/28 03:38:16;;;;;;;3.23;2.07;;;;;;;9.00;98.12;101076.91;4994234;28;20486;-73
2021/05/28 03:40:42;;;;;;;2.93;0.80;;;;;;;8.97;97.38;101080.16;4994174;28;20260;-73
2021/05/28 03:43:07;;;;;;;1.50;1.20;;;;;;;8.93;97.17;101075.28;4994406;28;20219;-73
2021/05/28 03:45:32;;;;;;;2.17;2.03;;;;;;;8.91;97.61;101073.97;4993994;28;20220;-73
2021/05/28 03:47:57;;;;;;;1.57;1.47;;;;;;;8.85;97.51;101067.75;4993819;28;20272;-73
2021/05/28 03:50:23;;;;;;;2.07;1.83;;;;;;;8.81;97.38;101066.66;4993952;28;20495;-73
2021/05/28 03:52:48;;;;;;;2.03;1.80;;;;;;;8.75;97.72;101067.81;4993908;28;20617;-73
2021/05/28 03:55:14;;;;;;;1.90;1.80;;;;;;;8.69;97.31;101065.44;4990352;28;20197;-73
2021/05/28 03:57:39;;;;;;;1.47;1.37;;;;;;;8.61;98.37;101064.09;4993935;28;20186;-72
2021/05/28 04:00:05;;;;;;;1.50;1.40;;;;;;;8.54;98.24;101058.16;4992652;28;20181;-73
2021/05/28 04:02:30;;;;;;;2.07;1.87;;;;;;;8.55;97.81;101070.69;4993585;28;20700;-73
2021/05/28 04:04:55;;;;;;;1.67;1.57;;;;;;;8.54;98.53;101058.16;4993735;28;20424;-73
2021/05/28 04:07:24;;;;;;;2.43;2.23;;;;;;;8.54;98.67;101061.72;4993656;28;20260;-72
2021/05/28 04:09:49;;;;;;;1.80;1.57;;;;;;;8.54;98.24;101055.44;4993455;28;20645;-71
2021/05/28 04:12:14;;;;;;;2.20;2.00;;;;;;;8.52;97.97;101068.50;4993416;28;20232;-72
2021/05/28 04:14:40;;;;;;;5.83;2.23;;;;;;;8.52;98.08;101069.31;4993451;28;20554;-72
2021/05/28 04:17:05;;;;;;;2.47;2.17;;;;;;;8.54;98.16;101060.91;4993653;28;20184;-72
2021/05/28 04:19:30;;;;;;;1.83;1.73;;;;;;;8.56;98.02;101075.03;4993388;28;20188;-72
2021/05/28 04:21:56;;;;;;;2.47;2.03;;;;;;;8.50;97.40;101081.59;4993232;28;20643;-72
2021/05/28 04:24:21;;;;;;;2.17;1.97;;;;;;;8.53;97.70;101081.84;4993406;28;20177;-72
2021/05/28 04:26:47;;;;;;;2.23;1.90;;;;;;;8.58;97.43;101089.19;4993657;28;20173;-72
2021/05/28 04:29:12;;;;;;;1.20;1.10;;;;;;;8.59;96.86;101085.38;4992907;28;20178;-72
2021/05/28 04:31:37;;;;;;;3.33;1.63;;;;;;;8.59;96.42;101088.09;4993286;28;20744;-71
2021/05/28 04:34:03;;;;;;;1.37;1.27;;;;;;;8.60;97.15;101079.63;4993154;28;20189;-72
2021/05/28 04:36:28;;;;;;;3.30;1.77;;;;;;;8.64;96.61;101090.75;4993299;28;20187;-72
2021/05/28 04:38:54;;;;;;;2.30;2.10;;;;;;;8.65;96.37;101092.38;4993256;28;20516;-72
2021/05/28 04:41:19;;;;;;;0.50;0.50;;;;;;;8.67;96.46;101094.84;4993026;28;20189;-72
2021/05/28 04:43:44;;;;;;;1.30;1.17;;;;;;;8.70;95.94;101094.28;4992696;28;20296;-72
2021/05/28 04:46:10;;;;;;;1.43;1.33;;;;;;;8.71;96.03;101099.44;4992711;28;20262;-72
2021/05/28 04:48:35;;;;;;;1.57;1.00;;;;;;;8.68;95.82;101104.63;4992722;28;20181;-72
2021/05/28 04:51:00;;;;;;;2.77;1.27;;;;;;;8.71;96.25;101104.09;4992958;28;20173;-71
2021/05/28 04:53:26;;;;;;;6.87;2.13;;;;;;;8.73;96.13;101110.06;4993092;28;20629;-72
2021/05/28 04:55:51;;;;;;;1.40;1.30;;;;;;;8.75;95.78;101108.69;4992902;28;20184;-72
2021/05/28 04:58:16;;;;;;;1.53;1.43;;;;;;;8.84;96.02;101119.81;4992672;28;20236;-72
2021/05/28 05:00:43;;;;;;;1.80;1.10;;;;;;;8.87;95.69;101111.88;4991188;28;20173;-74
2021/05/28 05:03:09;;;;;;;1.20;1.10;;;;;;;8.94;94.96;101125.16;4992740;28;20208;-73
2021/05/28 05:05:34;;;;;;;2.20;1.60;;;;;;;8.98;94.76;101131.69;4991381;28;20174;-73
2021/05/28 05:07:59;;;;;;;2.30;2.13;;;;;;;8.99;93.97;101119.69;4992376;28;20239;-73
2021/05/28 05:10:25;;;;;;;1.63;1.33;;;;;;;9.02;94.30;101126.47;4992555;28;20174;-73
2021/05/28 05:12:50;;;;;;;4.83;1.63;;;;;;;9.02;94.20;101127.28;4992446;28;20283;-73
2021/05/28 05:15:16;;;;;;;1.70;1.60;;;;;;;9.01;94.30;101122.94;4992589;28;20621;-73
2021/05/28 05:17:41;;;;;;;1.33;1.23;;;;;;;9.06;94.57;101128.34;4992372;28;20173;-73
2021/05/28 05:20:08;;;;;;;7.77;1.60;;;;;;;9.14;94.70;101125.03;4992459;28;20181;-73
2021/05/28 05:22:34;;;;;;;1.13;1.03;;;;;;;9.14;94.13;101135.13;4992510;28;20205;-73
2021/05/28 05:25:00;;;;;;;1.30;0.80;;;;;;;9.17;94.16;101142.72;4992265;28;20575;-73
2021/05/28 05:27:25;;;;;;;3.97;1.77;;;;;;;9.24;94.07;101132.28;4992133;28;20186;-73
2021/05/28 05:29:50;;;;;;;1.77;1.47;;;;;;;9.25;94.09;101144.81;4991940;28;20181;-73
2021/05/28 05:32:16;;;;;;;1.03;1.03;;;;;;;9.27;93.45;101139.91;4992172;28;20181;-73
2021/05/28 05:34:41;;;;;;;5.53;1.90;;;;;;;9.36;94.38;101151.00;4991760;28;20177;-73
2021/05/28 05:37:07;;;;;;;1.83;1.40;;;;;;;9.41;93.96;101149.06;4992100;28;20189;-73
2021/05/28 05:39:33;;;;;;;1.87;1.50;;;;;;;9.40;93.48;101155.63;4991776;28;20201;-73
2021/05/28 05:42:02;;;;;;;1.60;1.50;;;;;;;9.38;93.70;101155.06;4991779;28;20173;-73
2021/05/28 05:44:28;;;;;;;3.33;3.07;;;;;;;9.37;92.97;101160.81;4991816;28;20232;-74
2021/05/28 05:46:53;;;;;;;4.27;2.70;;;;;;;9.42;92.84;101155.34;4991920;28;20184;-73
2021/05/28 05:49:19;;;;;;;2.37;2.20;;;;;;;9.53;92.81;101165.84;4991638;28;20188;-73
2021/05/28 05:51:44;;;;;;;6.67;1.73;;;;;;;9.61;93.09;101163.63;4991771;28;20223;-73
2021/05/28 05:54:09;;;;;;;2.37;2.17;;;;;;;9.60;91.98;101171.00;4991792;28;20633;-73
2021/05/28 05:56:35;;;;;;;4.47;2.93;;;;;;;9.65;92.45;101170.94;4992199;28;20186;-73
2021/05/28 05:59:00;;;;;;;3.40;3.20;;;;;;;9.67;92.18;101170.63;4991572;28;20261;-73
2021/05/28 06:01:26;;;;;;;3.63;2.30;;;;;;;9.55;91.71;101171.03;4991826;28;20207;-73
2021/05/28 06:03:51;;;;;;;3.10;2.90;;;;;;;9.45;92.28;101169.22;4991444;28;20564;-73
2021/05/28 06:06:17;;;;;;;3.07;2.87;;;;;;;9.43;91.85;101170.59;4991502;28;20178;-73
2021/05/28 06:08:42;;;;;;;3.10;2.67;;;;;;;9.49;91.86;101166.72;4991397;28;20205;-73
2021/05/28 06:11:08;;;;;;;3.57;3.37;;;;;;;9.57;92.36;101165.28;4991296;28;20182;-73
2021/05/28 06:13:33;;;;;;;1.83;1.73;;;;;;;9.54;92.58;101180.31;4991465;28;20173;-73
2021/05/28 06:15:58;;;;;;;2.60;2.07;;;;;;;9.55;91.99;101176.50;4991663;28;20184;-73
2021/05/28 06:18:24;;;;;;;2.73;2.53;;;;;;;9.65;92.14;101183.75;4991439;28;20173;-73
2021/05/28 06:20:49;;;;;;;6.73;2.57;;;;;;;9.62;91.92;101184.34;4991374;28;20177;-73
2021/05/28 06:23:15;;;;;;;3.23;3.03;;;;;;;9.68;91.70;101185.91;4991379;28;20197;-73
2021/05/28 06:25:41;;;;;;;4.47;3.07;;;;;;;9.80;91.67;101189.06;4991433;28;20169;-73
2021/05/28 06:28:08;;;;;;;2.60;2.40;;;;;;;9.94;91.71;101183.75;4990039;28;20256;-76
2021/05/28 06:30:34;;;;;;;2.47;2.27;;;;;;;9.98;90.70;101184.78;4988074;28;20556;-76
2021/05/28 06:33:05;;;;;;;3.00;2.80;;;;;;;10.01;90.71;101197.88;4985706;28;20215;-73
2021/05/28 06:35:31;;;;;;;2.77;2.03;;;;;;;9.95;90.84;101188.91;4988978;28;20188;-73
2021/05/28 06:37:57;;;;;;;2.77;2.37;;;;;;;9.90;90.54;101197.16;4984452;28;20184;-73
2021/05/28 06:40:22;;;;;;;3.73;3.43;;;;;;;9.82;90.88;101201.31;4991291;28;20168;-74
2021/05/28 06:42:48;;;;;;;2.33;2.17;;;;;;;9.79;90.81;101203.81;4990664;28;20229;-78
2021/05/28 06:45:16;;;;;;;2.87;2.67;;;;;;;9.78;90.41;101199.47;4990786;28;20220;-76
2021/05/28 06:47:42;;;;;;;4.60;3.40;;;;;;;9.79;90.36;101209.28;4994940;28;20542;-77
2021/05/28 06:50:07;;;;;;;3.73;3.43;;;;;;;9.95;90.61;101199.03;4995305;28;20181;-76
2021/05/28 06:52:33;;;;;;;3.33;3.13;;;;;;;10.01;88.90;101209.63;4994334;28;20568;-73
2021/05/28 06:54:58;;;;;;;1.90;1.77;;;;;;;10.15;88.28;101207.03;4995188;28;20192;-73
2021/05/28 06:57:25;;;;;;;4.00;2.87;;;;;;;10.16;87.90;101205.91;4995187;28;20185;-73
2021/05/28 06:59:50;;;;;;;2.50;2.30;;;;;;;10.28;88.81;101208.28;4994443;28;20193;-73
2021/05/28 07:02:15;;;;;;;2.97;2.77;;;;;;;10.47;88.26;101200.13;4994843;28;20181;-73
2021/05/28 07:04:41;;;;;;;2.97;2.77;;;;;;;10.55;87.08;101200.28;4994777;28;20180;-73
2021/05/28 07:07:06;;;;;;;3.73;3.47;;;;;;;10.64;86.67;101194.97;4991187;28;20185;-73
2021/05/28 07:09:32;;;;;;;3.43;3.23;;;;;;;10.60;84.83;101205.69;4994297;28;20251;-73
2021/05/28 07:11:57;;;;;;;2.43;2.23;;;;;;;10.67;85.87;101210.78;4992980;28;20197;-73
2021/05/28 07:14:23;;;;;;;2.50;2.30;;;;;;;10.64;83.84;101203.19;4994891;28;20213;-73
2021/05/28 07:16:48;;;;;;;2.03;1.93;;;;;;;10.69;84.04;101211.31;4994956;28;20622;-73
2021/05/28 07:19:14;;;;;;;1.87;1.77;;;;;;;10.70;83.74;101208.31;4994922;28;20173;-73
2021/05/28 07:21:39;;;;;;;3.67;2.33;;;;;;;10.79;84.41;101197.50;4995401;28;20181;-73
2021/05/28 07:24:05;;;;;;;2.40;2.20;;;;;;;10.95;84.37;101189.91;4995306;28;20221;-73
2021/05/28 07:26:30;;;;;;;4.57;1.43;;;;;;;11.01;82.68;101202.41;4995124;28;20177;-73
2021/05/28 07:28:56;;;;;;;2.53;2.33;;;;;;;11.08;83.41;101202.84;4995553;28;20315;-73
2021/05/28 07:31:21;;;;;;;2.27;2.07;;;;;;;11.15;82.96;101207.97;4994085;28;20213;-73
2021/05/28 07:33:46;;;;;;;2.20;1.97;;;;;;;11.06;82.05;101207.81;4993957;28;20650;-74
2021/05/28 07:36:12;;;;;;;2.80;2.60;;;;;;;11.23;83.43;101210.00;4995190;28;20196;-73
2021/05/28 07:38:37;;;;;;;2.47;2.30;;;;;;;11.23;81.67;101216.28;4995127;28;20212;-73
2021/05/28 07:41:05;;;;;;;2.53;2.37;;;;;;;11.35;82.92;101204.09;4995034;28;20252;-73
2021/05/28 07:43:31;;;;;;;2.07;1.97;;;;;;;11.49;82.99;101208.50;4994873;28;20201;-73
2021/05/28 07:45:58;;;;;;;2.57;2.17;;;;;;;11.65;83.74;101206.31;4994959;28;20204;-76
2021/05/28 07:48:24;;;;;;;2.30;2.10;;;;;;;11.77;82.14;101201.19;4994763;28;20170;-73
2021/05/28 07:50:50;;;;;;;3.30;2.80;;;;;;;11.82;81.51;101192.91;4994941;28;20177;-73
2021/05/28 07:53:21;;;;;;;6.43;3.60;;;;;;;11.83;82.86;101202.75;4994762;28;20201;-74
2021/05/28 07:55:46;;;;;;;2.17;2.00;;;;;;;11.87;82.37;101203.78;4995043;28;20162;-73
2021/05/28 07:58:12;;;;;;;1.70;1.23;;;;;;;12.00;82.77;101193.13;4993890;28;20707;-73
2021/05/28 08:00:38;;;;;;;3.50;2.03;;;;;;;12.00;82.85;101201.34;4994611;28;20625;-73
2021/05/28 08:03:04;;;;;;;3.57;2.40;;;;;;;12.21;83.82;101200.69;4994390;28;20212;-73
2021/05/28 08:05:30;;;;;;;1.90;1.80;;;;;;;12.36;82.12;101193.28;4994430;28;20200;-74
2021/05/28 08:07:56;;;;;;;2.23;2.03;;;;;;;12.57;82.07;101191.72;4993164;28;20185;-73
2021/05/28 08:10:23;;;;;;;1.93;1.83;;;;;;;12.61;79.36;101187.28;4993387;28;20181;-73
2021/05/28 08:12:50;;;;;;;3.97;1.90;;;;;;;12.61;78.73;101189.19;4994668;28;20197;-73
2021/05/28 08:15:19;;;;;;;2.67;2.47;;;;;;;12.67;79.81;101190.69;4994825;28;20188;-73
2021/05/28 08:17:46;;;;;;;2.30;2.10;;;;;;;12.74;78.37;101196.59;4996679;28;20616;-73
2021/05/28 08:20:12;;;;;;;1.53;1.43;;;;;;;12.86;79.03;101204.25;5000606;28;20178;-74
2021/05/28 08:22:37;;;;;;;1.30;1.20;;;;;;;13.00;79.19;101189.41;4996152;28;20857;-73
2021/05/28 08:25:04;;;;;;;1.47;1.37;;;;;;;13.10;74.44;101200.16;4994626;28;20177;-73
2021/05/28 08:27:29;;;;;;;1.40;1.30;;;;;;;13.21;75.01;101202.69;4994545;28;20548;-73
2021/05/28 08:29:55;;;;;;;3.90;1.60;;;;;;;13.32;75.69;101196.66;4993923;28;20175;-73
2021/05/28 08:32:20;;;;;;;4.53;2.37;;;;;;;13.34;75.65;101204.59;4992511;28;20192;-73
2021/05/28 08:34:45;;;;;;;2.13;1.53;;;;;;;13.47;75.20;101211.13;4993631;28;20177;-73
2021/05/28 08:37:11;;;;;;;1.93;1.83;;;;;;;13.47;75.24;101205.66;4993419;28;20495;-73
2021/05/28 08:39:36;;;;;;;2.90;2.60;;;;;;;13.56;75.04;101201.00;4991974;28;20273;-73
2021/05/28 08:42:02;;;;;;;1.83;1.73;;;;;;;13.54;75.16;101201.31;4993409;28;20205;-73
2021/05/28 08:44:27;;;;;;;2.13;1.37;;;;;;;13.61;74.62;101200.91;4993277;28;20513;-73
2021/05/28 08:46:54;;;;;;;2.10;2.00;;;;;;;13.52;74.65;101197.28;4993451;28;20252;-73
2021/05/28 08:49:21;;;;;;;2.73;1.97;;;;;;;13.40;72.83;101211.56;4991835;28;20189;-73
2021/05/28 08:51:47;;;;;;;2.03;1.63;;;;;;;13.35;71.83;101198.78;4993034;28;20244;-73
2021/05/28 08:54:12;;;;;;;2.23;1.73;;;;;;;13.41;73.60;101196.72;4993520;28;20185;-73
2021/05/28 08:56:38;;;;;;;3.03;2.43;;;;;;;13.40;72.92;101198.66;4993446;28;20625;-74
2021/05/28 08:59:05;;;;;;;1.50;1.40;;;;;;;13.62;74.11;101205.25;4992743;28;20621;-73
2021/05/28 09:01:31;;;;;;;2.17;2.00;;;;;;;13.61;70.18;101203.66;4992893;28;20269;-73
2021/05/28 09:03:59;;;;;;;1.67;1.30;;;;;;;13.61;70.79;101198.97;4992986;28;20200;-73
2021/05/28 09:06:24;;;;;;;1.90;1.77;;;;;;;13.66;71.63;101195.28;4992859;28;20592;-73
2021/05/28 09:08:50;;;;;;;1.57;1.40;;;;;;;13.69;70.59;101195.44;4990153;28;20188;-73
2021/05/28 09:11:18;;;;;;;1.53;1.43;;;;;;;13.76;69.19;101194.22;4992413;28;20182;-75
2021/05/28 09:13:49;;;;;;;1.07;1.07;;;;;;;13.67;65.81;101202.38;4992642;28;20185;-78
2021/05/28 09:16:20;;;;;;;1.23;1.13;;;;;;;13.66;65.56;101196.06;4992792;28;20173;-73
2021/05/28 09:18:51;;;;;;;1.60;1.50;;;;;;;13.77;69.07;101207.63;4992712;28;20576;-73
2021/05/28 09:21:23;;;;;;;1.30;1.20;;;;;;;13.83;64.51;101208.28;4992626;28;20205;-73
2021/05/28 09:23:50;;;;;;;0.97;0.60;;;;;;;13.87;62.98;101201.03;4992424;28;20215;-73
2021/05/28 09:26:16;;;;;;;1.47;1.13;;;;;;;14.00;64.80;101205.63;4992705;28;20197;-73
2021/05/28 09:28:44;;;;;;;1.10;1.10;;;;;;;14.15;65.22;101204.41;4992372;28;20205;-73
2021/05/28 09:31:14;;;;;;;1.23;1.13;;;;;;;14.30;60.90;101210.28;4992424;28;20637;-72
2021/05/28 09:33:43;;;;;;;0.90;0.90;;;;;;;14.32;61.08;101210.00;4992332;28;20181;-73
2021/05/28 09:36:12;;;;;;;1.70;1.60;;;;;;;14.47;63.04;101211.53;4992396;28;20178;-73
2021/05/28 09:38:38;;;;;;;1.30;1.20;;;;;;;14.49;61.64;101214.78;4992118;28;20817;-74
2021/05/28 09:41:05;;;;;;;2.93;1.47;;;;;;;14.51;61.82;101221.56;4992232;28;20177;-73
2021/05/28 09:43:31;;;;;;;1.47;1.37;;;;;;;14.69;63.79;101216.94;4992083;28;20197;-74
2021/05/28 09:45:57;;;;;;;1.20;1.13;;;;;;;14.66;63.13;101225.81;4992532;28;20236;-74
2021/05/28 09:48:31;;;;;;;1.63;1.53;;;;;;;14.39;62.82;101226.03;4992140;28;20169;-73
2021/05/28 09:50:59;;;;;;;1.53;1.43;;;;;;;14.50;64.54;101224.66;4991122;28;20215;-73
2021/05/28 09:53:41;;;;;;;1.87;1.53;;;;;;;14.54;63.85;101218.19;4991882;28;20177;-73
2021/05/28 09:56:28;;;;;;;1.50;1.40;;;;;;;14.62;64.35;101222.09;4991980;28;20173;-72
2021/05/28 09:58:54;;;;;;;2.20;2.00;;;;;;;14.59;64.93;101228.22;4977622;28;20601;-72
2021/05/28 10:01:20;;;;;;;2.53;2.33;;;;;;;14.54;64.47;101225.63;4990645;28;20181;-72
2021/05/28 10:03:59;;;;;;;3.57;3.03;;;;;;;14.41;65.23;101224.56;4991773;28;20205;-73
2021/05/28 10:06:27;;;;;;;2.37;2.17;;;;;;;14.45;65.80;101216.53;4990685;28;20169;-72
2021/05/28 10:08:53;;;;;;;4.40;3.53;;;;;;;14.74;66.46;101221.47;4991402;28;20161;-72
2021/05/28 10:11:18;;;;;;;3.30;3.00;;;;;;;14.35;66.13;101223.09;4991504;28;20859;-72
2021/05/28 10:13:43;;;;;;;2.17;2.07;;;;;;;14.69;66.37;101224.38;4991730;28;20165;-73
2021/05/28 10:16:13;;;;;;;3.40;3.10;;;;;;;14.93;67.11;101226.69;4991520;28;20681;-73
2021/05/28 10:18:39;;;;;;;3.40;3.17;;;;;;;15.28;67.66;101222.81;4990252;28;20251;-72
2021/05/28 10:21:05;;;;;;;1.90;1.80;;;;;;;15.42;64.57;101228.97;4991414;28;20434;-74
2021/05/28 10:23:30;;;;;;;3.20;2.70;;;;;;;15.23;65.29;101228.50;4991386;28;20684;-74
2021/05/28 10:25:57;;;;;;;3.30;3.00;;;;;;;15.36;64.64;101223.97;4991556;28;20264;-74
2021/05/28 10:28:30;;;;;;;10.27;2.70;;;;;;;15.27;62.45;101226.72;4990220;28;20181;-74
2021/05/28 10:30:55;;;;;;;2.73;2.53;;;;;;;15.23;63.88;101234.00;4991547;28;20269;-73
2021/05/28 10:33:25;;;;;;;4.13;3.83;;;;;;;15.11;65.80;101226.38;4991294;28;20268;-72
2021/05/28 10:35:54;;;;;;;4.70;4.30;;;;;;;14.89;65.77;101234.75;4991402;28;20173;-73
2021/05/28 10:38:29;;;;;;;4.03;3.63;;;;;;;15.18;66.13;101232.19;4991124;28;20257;-73
2021/05/28 10:40:55;;;;;;;2.23;2.03;;;;;;;15.03;65.75;101229.91;4991530;28;20172;-74
2021/05/28 10:43:20;;;;;;;2.87;2.67;;;;;;;15.08;64.74;101223.47;4991051;28;20300;-74
2021/05/28 10:46:05;;;;;;;3.13;2.80;;;;;;;15.46;65.00;101229.13;4991296;28;20268;-73
2021/05/28 10:48:43;;;;;;;2.97;2.77;;;;;;;15.68;64.70;101220.72;4991107;28;20209;-74
2021/05/28 10:51:14;;;;;;;3.57;3.27;;;;;;;15.94;63.97;101226.19;4991278;28;20534;-73
2021/05/28 10:53:41;;;;;;;3.13;2.93;;;;;;;15.83;62.11;101227.66;4991176;28;20170;-74
2021/05/28 10:56:13;;;;;;;3.47;3.27;;;;;;;15.70;64.35;101231.41;4991299;28;20243;-74
2021/05/28 10:59:05;;;;;;;4.90;3.17;;;;;;;15.32;63.54;101215.53;4990949;28;20657;-74
2021/05/28 11:01:31;;;;;;;2.47;2.27;;;;;;;15.45;64.47;101222.81;4991061;28;20240;-74
2021/05/28 11:03:56;;;;;;;2.90;2.70;;;;;;;15.24;63.14;101221.06;4991069;28;20209;-74
2021/05/28 11:06:22;;;;;;;2.63;2.43;;;;;;;15.03;63.68;101218.91;4991145;28;20177;-74
2021/05/28 11:08:49;;;;;;;3.67;3.37;;;;;;;15.15;64.96;101226.53;4990963;28;20185;-74
2021/05/28 11:11:35;;;;;;;3.77;3.47;;;;;;;15.61;64.42;101225.09;4991010;28;20181;-74
2021/05/28 11:14:05;;;;;;;3.70;3.47;;;;;;;15.48;62.45;101215.88;4991080;28;20205;-74
2021/05/28 11:16:48;;;;;;;3.03;2.83;;;;;;;15.44;64.53;101215.69;4991005;28;20586;-74
2021/05/28 11:19:23;;;;;;;3.87;3.57;;;;;;;15.31;64.07;101222.16;4987454;28;20180;-74
2021/05/28 11:21:57;;;;;;;3.23;3.03;;;;;;;15.35;64.70;101220.41;4971598;28;20662;-74
2021/05/28 11:24:48;;;;;;;3.83;3.47;;;;;;;15.35;65.00;101216.84;4971452;28;20220;-74
2021/05/28 11:27:15;;;;;;;4.17;3.87;;;;;;;15.21;66.14;101230.78;4971574;28;20189;-74
2021/05/28 11:29:41;;;;;;;4.63;4.27;;;;;;;15.01;66.44;101223.94;4971627;28;20178;-74